sensor_id;sensor_type;location;lat;lon;timestamp;pressure;altitude;pressure_sealevel;temperature;humidity
19553;BME280;9420;50.876;7.012;2023-05-22T00:00:47;100842.09;;;35.81;58.22
19553;BME280;9420;50.876;7.012;2023-05-22T00:03:17;100850.06;;;35.70;59.33
19553;BME280;9420;50.876;7.012;2023-05-22T00:05:44;100849.25;;;35.82;59.02
19553;BME280;9420;50.876;7.012;2023-05-22T00:08:13;100836.69;;;36.01;58.61
19553;BME280;9420;50.876;7.012;2023-05-22T00:10:40;100844.75;;;36.22;57.42
19553;BME280;9420;50.876;7.012;2023-05-22T00:13:07;100827.00;;;35.99;58.46
19553;BME280;9420;50.876;7.012;2023-05-22T00:15:34;100834.34;;;35.44;58.51
19553;BME280;9420;50.876;7.012;2023-05-22T00:18:03;100842.22;;;35.26;58.87
19553;BME280;9420;50.876;7.012;2023-05-22T00:20:30;100830.50;;;35.39;58.30
19553;BME280;9420;50.876;7.012;2023-05-22T00:23:02;100828.38;;;35.34;57.92
19553;BME280;9420;50.876;7.012;2023-05-22T00:25:30;100837.09;;;35.10;58.31
19553;BME280;9420;50.876;7.012;2023-05-22T00:27:57;100818.44;;;36.74;54.09
19553;BME280;9420;50.876;7.012;2023-05-22T00:30:24;100828.47;;;34.58;58.15
19553;BME280;9420;50.876;7.012;2023-05-22T00:32:51;100831.59;;;34.55;58.32
19553;BME280;9420;50.876;7.012;2023-05-22T00:35:19;100827.47;;;34.65;58.05
19553;BME280;9420;50.876;7.012;2023-05-22T00:37:46;100820.66;;;34.55;58.31
19553;BME280;9420;50.876;7.012;2023-05-22T00:40:14;100824.56;;;34.24;58.63
19553;BME280;9420;50.876;7.012;2023-05-22T00:42:42;100826.38;;;34.38;57.94
19553;BME280;9420;50.876;7.012;2023-05-22T00:45:10;100829.03;;;34.11;58.33
19553;BME280;9420;50.876;7.012;2023-05-22T00:47:39;100821.19;;;34.01;58.32
19553;BME280;9420;50.876;7.012;2023-05-22T00:50:09;100828.19;;;34.10;58.36
19553;BME280;9420;50.876;7.012;2023-05-22T00:52:42;100831.91;;;34.03;58.21
19553;BME280;9420;50.876;7.012;2023-05-22T00:55:12;100829.69;;;33.77;58.42
19553;BME280;9420;50.876;7.012;2023-05-22T00:57:40;100824.09;;;34.91;57.66
19553;BME280;9420;50.876;7.012;2023-05-22T01:00:09;100836.53;;;34.23;57.66
19553;BME280;9420;50.876;7.012;2023-05-22T01:02:37;100837.03;;;34.12;58.16
19553;BME280;9420;50.876;7.012;2023-05-22T01:05:05;100826.75;;;34.57;57.47
19553;BME280;9420;50.876;7.012;2023-05-22T01:07:33;100829.81;;;34.05;58.33
19553;BME280;9420;50.876;7.012;2023-05-22T01:10:05;100829.03;;;34.11;58.58
19553;BME280;9420;50.876;7.012;2023-05-22T01:12:43;100834.84;;;34.22;59.16
19553;BME280;9420;50.876;7.012;2023-05-22T01:15:23;100826.22;;;34.68;58.60
19553;BME280;9420;50.876;7.012;2023-05-22T01:18:11;100828.91;;;34.89;58.15
19553;BME280;9420;50.876;7.012;2023-05-22T01:20:51;100818.69;;;34.27;58.16
19553;BME280;9420;50.876;7.012;2023-05-22T01:26:53;100829.91;;;34.32;58.57
19553;BME280;9420;50.876;7.012;2023-05-22T01:29:41;100834.91;;;34.08;59.17
19553;BME280;9420;50.876;7.012;2023-05-22T01:32:16;100830.69;;;34.26;59.25
19553;BME280;9420;50.876;7.012;2023-05-22T01:34:51;100830.28;;;34.29;58.61
19553;BME280;9420;50.876;7.012;2023-05-22T01:37:20;100830.19;;;34.44;57.87
19553;BME280;9420;50.876;7.012;2023-05-22T01:39:50;100829.38;;;34.01;58.63
19553;BME280;9420;50.876;7.012;2023-05-22T01:42:18;100837.66;;;33.93;58.13
19553;BME280;9420;50.876;7.012;2023-05-22T01:44:46;100841.09;;;33.81;58.39
19553;BME280;9420;50.876;7.012;2023-05-22T01:47:15;100834.59;;;34.17;57.81
19553;BME280;9420;50.876;7.012;2023-05-22T01:49:43;100836.94;;;34.42;57.93
19553;BME280;9420;50.876;7.012;2023-05-22T01:52:17;100822.47;;;34.69;58.22
19553;BME280;9420;50.876;7.012;2023-05-22T01:54:54;100825.88;;;35.05;56.84
19553;BME280;9420;50.876;7.012;2023-05-22T01:57:27;100830.91;;;34.74;57.04
19553;BME280;9420;50.876;7.012;2023-05-22T02:00:05;100835.66;;;34.44;57.57
19553;BME280;9420;50.876;7.012;2023-05-22T02:02:38;100832.13;;;34.22;58.09
19553;BME280;9420;50.876;7.012;2023-05-22T02:05:11;100823.00;;;34.15;57.76
19553;BME280;9420;50.876;7.012;2023-05-22T02:07:45;100825.53;;;34.38;56.69
19553;BME280;9420;50.876;7.012;2023-05-22T02:10:14;100822.72;;;33.75;57.61
19553;BME280;9420;50.876;7.012;2023-05-22T02:12:42;100828.19;;;33.75;57.51
19553;BME280;9420;50.876;7.012;2023-05-22T02:15:10;100819.31;;;33.37;58.35
19553;BME280;9420;50.876;7.012;2023-05-22T02:17:39;100813.25;;;33.56;58.16
19553;BME280;9420;50.876;7.012;2023-05-22T02:20:10;100821.34;;;33.35;58.60
19553;BME280;9420;50.876;7.012;2023-05-22T02:22:41;100826.75;;;33.28;58.11
19553;BME280;9420;50.876;7.012;2023-05-22T02:25:10;100825.88;;;33.57;57.52
19553;BME280;9420;50.876;7.012;2023-05-22T02:27:40;100828.69;;;32.91;58.79
19553;BME280;9420;50.876;7.012;2023-05-22T02:30:08;100824.66;;;33.45;57.41
19553;BME280;9420;50.876;7.012;2023-05-22T02:32:35;100825.59;;;33.52;58.89
19553;BME280;9420;50.876;7.012;2023-05-22T02:35:05;100831.34;;;33.57;57.87
19553;BME280;9420;50.876;7.012;2023-05-22T02:37:32;100832.38;;;33.41;57.78
19553;BME280;9420;50.876;7.012;2023-05-22T02:40:00;100819.50;;;33.50;58.36
19553;BME280;9420;50.876;7.012;2023-05-22T02:42:27;100830.94;;;34.10;57.78
19553;BME280;9420;50.876;7.012;2023-05-22T02:44:54;100817.13;;;33.97;58.14
19553;BME280;9420;50.876;7.012;2023-05-22T02:47:21;100818.63;;;34.00;58.39
19553;BME280;9420;50.876;7.012;2023-05-22T02:49:48;100808.28;;;33.45;58.07
19553;BME280;9420;50.876;7.012;2023-05-22T02:52:17;100816.81;;;33.71;58.63
19553;BME280;9420;50.876;7.012;2023-05-22T02:54:44;100808.41;;;34.51;57.86
19553;BME280;9420;50.876;7.012;2023-05-22T02:57:11;100808.41;;;34.08;57.56
19553;BME280;9420;50.876;7.012;2023-05-22T02:59:37;100804.50;;;34.38;56.35
19553;BME280;9420;50.876;7.012;2023-05-22T03:02:05;100808.69;;;34.56;56.86
19553;BME280;9420;50.876;7.012;2023-05-22T03:04:32;100811.34;;;34.49;57.22
19553;BME280;9420;50.876;7.012;2023-05-22T03:07:03;100809.47;;;34.28;56.36
19553;BME280;9420;50.876;7.012;2023-05-22T03:09:31;100811.56;;;34.05;56.19
19553;BME280;9420;50.876;7.012;2023-05-22T03:11:58;100800.09;;;34.93;54.95
19553;BME280;9420;50.876;7.012;2023-05-22T03:14:25;100806.75;;;34.50;56.68
19553;BME280;9420;50.876;7.012;2023-05-22T03:16:53;100797.50;;;35.06;56.19
19553;BME280;9420;50.876;7.012;2023-05-22T03:19:21;100806.56;;;35.13;55.85
19553;BME280;9420;50.876;7.012;2023-05-22T03:21:48;100809.78;;;34.19;55.88
19553;BME280;9420;50.876;7.012;2023-05-22T03:24:15;100800.88;;;34.53;56.56
19553;BME280;9420;50.876;7.012;2023-05-22T03:26:44;100802.69;;;34.67;56.13
19553;BME280;9420;50.876;7.012;2023-05-22T03:29:11;100806.19;;;33.97;57.83
19553;BME280;9420;50.876;7.012;2023-05-22T03:31:37;100803.19;;;33.92;57.92
19553;BME280;9420;50.876;7.012;2023-05-22T03:34:05;100802.00;;;33.30;57.24
19553;BME280;9420;50.876;7.012;2023-05-22T03:36:32;100807.22;;;32.87;57.70
19553;BME280;9420;50.876;7.012;2023-05-22T03:38:59;100810.28;;;33.22;59.73
19553;BME280;9420;50.876;7.012;2023-05-22T03:41:26;100804.75;;;33.80;57.91
19553;BME280;9420;50.876;7.012;2023-05-22T03:43:55;100805.59;;;33.81;57.74
19553;BME280;9420;50.876;7.012;2023-05-22T03:46:22;100808.81;;;33.70;57.40
19553;BME280;9420;50.876;7.012;2023-05-22T03:48:49;100815.34;;;33.54;58.16
19553;BME280;9420;50.876;7.012;2023-05-22T03:51:16;100808.13;;;33.82;57.80
19553;BME280;9420;50.876;7.012;2023-05-22T03:53:43;100816.59;;;33.51;57.04
19553;BME280;9420;50.876;7.012;2023-05-22T03:56:10;100817.94;;;33.62;56.48
19553;BME280;9420;50.876;7.012;2023-05-22T03:58:37;100815.84;;;33.28;57.46
19553;BME280;9420;50.876;7.012;2023-05-22T04:01:05;100821.56;;;33.19;57.37
19553;BME280;9420;50.876;7.012;2023-05-22T04:03:34;100825.66;;;32.85;58.11
19553;BME280;9420;50.876;7.012;2023-05-22T04:06:01;100822.22;;;33.06;57.99
19553;BME280;9420;50.876;7.012;2023-05-22T04:08:29;100824.84;;;33.00;58.09
19553;BME280;9420;50.876;7.012;2023-05-22T04:10:56;100827.06;;;32.81;58.20
19553;BME280;9420;50.876;7.012;2023-05-22T04:13:23;100830.41;;;33.21;57.42
19553;BME280;9420;50.876;7.012;2023-05-22T04:15:51;100823.84;;;33.01;57.58
19553;BME280;9420;50.876;7.012;2023-05-22T04:18:22;100835.59;;;33.01;57.77
19553;BME280;9420;50.876;7.012;2023-05-22T04:20:49;100841.69;;;32.66;58.64
19553;BME280;9420;50.876;7.012;2023-05-22T04:23:17;100839.88;;;32.96;57.95
19553;BME280;9420;50.876;7.012;2023-05-22T04:25:44;100844.25;;;32.67;58.13
19553;BME280;9420;50.876;7.012;2023-05-22T04:28:12;100849.56;;;32.83;58.16
19553;BME280;9420;50.876;7.012;2023-05-22T04:30:42;100845.72;;;32.55;59.01
19553;BME280;9420;50.876;7.012;2023-05-22T04:33:09;100846.97;;;33.34;57.88
19553;BME280;9420;50.876;7.012;2023-05-22T04:35:38;100854.03;;;32.99;58.43
19553;BME280;9420;50.876;7.012;2023-05-22T04:38:07;100848.00;;;33.33;59.03
19553;BME280;9420;50.876;7.012;2023-05-22T04:40:34;100846.22;;;33.11;59.50
19553;BME280;9420;50.876;7.012;2023-05-22T04:43:02;100848.75;;;33.12;60.69
19553;BME280;9420;50.876;7.012;2023-05-22T04:45:29;100856.63;;;32.55;60.95
19553;BME280;9420;50.876;7.012;2023-05-22T04:47:57;100853.00;;;32.40;61.54
19553;BME280;9420;50.876;7.012;2023-05-22T04:50:27;100857.97;;;32.59;62.64
19553;BME280;9420;50.876;7.012;2023-05-22T04:52:58;100857.47;;;32.33;63.97
19553;BME280;9420;50.876;7.012;2023-05-22T04:55:29;100849.31;;;32.70;63.90
19553;BME280;9420;50.876;7.012;2023-05-22T04:57:58;100857.06;;;32.81;63.29
19553;BME280;9420;50.876;7.012;2023-05-22T05:00:25;100863.34;;;31.53;65.99
19553;BME280;9420;50.876;7.012;2023-05-22T05:02:53;100864.00;;;33.36;62.49
19553;BME280;9420;50.876;7.012;2023-05-22T05:05:21;100862.91;;;32.33;63.28
19553;BME280;9420;50.876;7.012;2023-05-22T05:07:49;100865.63;;;32.33;64.58
19553;BME280;9420;50.876;7.012;2023-05-22T05:10:18;100860.47;;;32.16;64.47
19553;BME280;9420;50.876;7.012;2023-05-22T05:12:45;100863.63;;;32.72;63.16
19553;BME280;9420;50.876;7.012;2023-05-22T05:15:12;100870.50;;;32.83;63.26
19553;BME280;9420;50.876;7.012;2023-05-22T05:17:39;100865.53;;;32.49;63.30
19553;BME280;9420;50.876;7.012;2023-05-22T05:20:08;100868.78;;;31.91;65.17
19553;BME280;9420;50.876;7.012;2023-05-22T05:22:35;100872.84;;;31.10;67.05
19553;BME280;9420;50.876;7.012;2023-05-22T05:25:03;100872.75;;;31.81;66.65
19553;BME280;9420;50.876;7.012;2023-05-22T05:27:32;100864.28;;;31.76;66.73
19553;BME280;9420;50.876;7.012;2023-05-22T05:29:59;100867.91;;;32.30;65.77
19553;BME280;9420;50.876;7.012;2023-05-22T05:32:26;100877.00;;;31.36;67.76
19553;BME280;9420;50.876;7.012;2023-05-22T05:34:53;100875.63;;;31.87;67.03
19553;BME280;9420;50.876;7.012;2023-05-22T05:37:21;100874.75;;;31.87;66.95
19553;BME280;9420;50.876;7.012;2023-05-22T05:39:48;100882.22;;;30.99;70.82
19553;BME280;9420;50.876;7.012;2023-05-22T05:42:15;100872.81;;;32.34;66.05
19553;BME280;9420;50.876;7.012;2023-05-22T05:44:44;100893.09;;;30.99;69.04
19553;BME280;9420;50.876;7.012;2023-05-22T05:47:12;100883.47;;;33.04;64.55
19553;BME280;9420;50.876;7.012;2023-05-22T05:49:39;100886.53;;;32.41;66.36
19553;BME280;9420;50.876;7.012;2023-05-22T05:52:06;100888.19;;;31.58;68.44
19553;BME280;9420;50.876;7.012;2023-05-22T05:54:33;100895.81;;;32.01;66.71
19553;BME280;9420;50.876;7.012;2023-05-22T05:57:00;100881.44;;;33.64;62.92
19553;BME280;9420;50.876;7.012;2023-05-22T05:59:27;100905.47;;;30.78;69.99
19553;BME280;9420;50.876;7.012;2023-05-22T06:01:58;100900.75;;;30.88;69.46
19553;BME280;9420;50.876;7.012;2023-05-22T06:04:25;100889.25;;;34.17;63.09
19553;BME280;9420;50.876;7.012;2023-05-22T06:06:53;100893.84;;;31.87;65.72
19553;BME280;9420;50.876;7.012;2023-05-22T06:09:20;100895.41;;;32.12;67.18
19553;BME280;9420;50.876;7.012;2023-05-22T06:11:47;100904.06;;;31.85;67.30
19553;BME280;9420;50.876;7.012;2023-05-22T06:14:14;100893.25;;;33.13;65.65
19553;BME280;9420;50.876;7.012;2023-05-22T06:16:41;100890.59;;;34.64;61.98
19553;BME280;9420;50.876;7.012;2023-05-22T06:19:10;100896.72;;;34.09;62.38
19553;BME280;9420;50.876;7.012;2023-05-22T06:21:37;100899.47;;;33.94;61.32
19553;BME280;9420;50.876;7.012;2023-05-22T06:24:05;100899.28;;;33.81;62.94
19553;BME280;9420;50.876;7.012;2023-05-22T06:26:32;100905.69;;;33.01;65.40
19553;BME280;9420;50.876;7.012;2023-05-22T06:28:59;100902.28;;;35.00;60.83
19553;BME280;9420;50.876;7.012;2023-05-22T06:31:26;100906.56;;;35.09;59.23
19553;BME280;9420;50.876;7.012;2023-05-22T06:33:53;100912.47;;;34.64;59.88
19553;BME280;9420;50.876;7.012;2023-05-22T06:36:22;100908.09;;;34.12;61.16
19553;BME280;9420;50.876;7.012;2023-05-22T06:38:48;100911.00;;;34.47;60.45
19553;BME280;9420;50.876;7.012;2023-05-22T06:41:16;100916.84;;;35.07;59.61
19553;BME280;9420;50.876;7.012;2023-05-22T06:43:43;100917.94;;;34.64;59.93
19553;BME280;9420;50.876;7.012;2023-05-22T06:46:10;100918.72;;;35.00;59.07
19553;BME280;9420;50.876;7.012;2023-05-22T06:48:37;100917.00;;;34.57;59.79
19553;BME280;9420;50.876;7.012;2023-05-22T06:51:04;100923.47;;;34.70;59.82
19553;BME280;9420;50.876;7.012;2023-05-22T06:53:32;100924.91;;;34.09;59.80
19553;BME280;9420;50.876;7.012;2023-05-22T06:55:59;100927.34;;;34.04;60.21
19553;BME280;9420;50.876;7.012;2023-05-22T06:58:26;100926.91;;;33.57;60.86
19553;BME280;9420;50.876;7.012;2023-05-22T07:00:53;100928.09;;;33.98;61.72
19553;BME280;9420;50.876;7.012;2023-05-22T07:03:21;100919.50;;;34.52;61.10
19553;BME280;9420;50.876;7.012;2023-05-22T07:05:48;100932.28;;;35.76;57.47
19553;BME280;9420;50.876;7.012;2023-05-22T07:08:15;100931.09;;;34.54;58.79
19553;BME280;9420;50.876;7.012;2023-05-22T07:10:44;100936.59;;;34.03;61.04
19553;BME280;9420;50.876;7.012;2023-05-22T07:13:11;100933.97;;;34.67;60.17
19553;BME280;9420;50.876;7.012;2023-05-22T07:15:38;100933.44;;;34.57;58.02
19553;BME280;9420;50.876;7.012;2023-05-22T07:18:05;100934.44;;;34.34;59.47
19553;BME280;9420;50.876;7.012;2023-05-22T07:20:34;100929.44;;;35.29;58.30
19553;BME280;9420;50.876;7.012;2023-05-22T07:23:01;100935.28;;;33.41;61.91
19553;BME280;9420;50.876;7.012;2023-05-22T07:25:28;100942.38;;;33.13;63.00
19553;BME280;9420;50.876;7.012;2023-05-22T07:27:56;100934.41;;;34.13;60.41
19553;BME280;9420;50.876;7.012;2023-05-22T07:30:24;100930.03;;;34.55;61.77
19553;BME280;9420;50.876;7.012;2023-05-22T07:32:51;100935.38;;;34.06;60.09
19553;BME280;9420;50.876;7.012;2023-05-22T07:35:18;100937.09;;;36.09;57.27
19553;BME280;9420;50.876;7.012;2023-05-22T07:37:45;100947.69;;;34.16;59.93
19553;BME280;9420;50.876;7.012;2023-05-22T07:40:12;100949.84;;;33.92;60.72
19553;BME280;9420;50.876;7.012;2023-05-22T07:42:39;100949.22;;;34.04;60.87
19553;BME280;9420;50.876;7.012;2023-05-22T07:45:09;100941.63;;;34.57;58.27
19553;BME280;9420;50.876;7.012;2023-05-22T07:47:36;100951.56;;;34.07;60.03
19553;BME280;9420;50.876;7.012;2023-05-22T07:50:06;100954.88;;;33.88;59.77
19553;BME280;9420;50.876;7.012;2023-05-22T07:52:33;100945.06;;;35.35;57.56
19553;BME280;9420;50.876;7.012;2023-05-22T07:55:00;100943.16;;;36.58;55.98
19553;BME280;9420;50.876;7.012;2023-05-22T07:57:27;100941.00;;;36.40;55.01
19553;BME280;9420;50.876;7.012;2023-05-22T07:59:55;100955.72;;;34.54;57.48
19553;BME280;9420;50.876;7.012;2023-05-22T08:02:25;100941.69;;;36.02;57.63
19553;BME280;9420;50.876;7.012;2023-05-22T08:04:52;100944.13;;;36.37;56.13
19553;BME280;9420;50.876;7.012;2023-05-22T08:07:19;100937.66;;;37.63;53.68
19553;BME280;9420;50.876;7.012;2023-05-22T08:09:46;100952.84;;;35.59;56.61
19553;BME280;9420;50.876;7.012;2023-05-22T08:12:13;100953.03;;;35.92;56.85
19553;BME280;9420;50.876;7.012;2023-05-22T08:14:40;100951.00;;;34.48;59.44
19553;BME280;9420;50.876;7.012;2023-05-22T08:17:07;100954.97;;;35.64;57.98
19553;BME280;9420;50.876;7.012;2023-05-22T08:19:35;100943.06;;;36.25;56.05
19553;BME280;9420;50.876;7.012;2023-05-22T08:22:02;100945.31;;;36.82;55.11
19553;BME280;9420;50.876;7.012;2023-05-22T08:24:29;100952.88;;;36.67;54.95
19553;BME280;9420;50.876;7.012;2023-05-22T08:26:57;100943.56;;;37.66;52.82
19553;BME280;9420;50.876;7.012;2023-05-22T08:29:25;100948.63;;;36.58;54.11
19553;BME280;9420;50.876;7.012;2023-05-22T08:31:52;100951.69;;;35.20;56.66
19553;BME280;9420;50.876;7.012;2023-05-22T08:34:21;100953.34;;;35.14;58.00
19553;BME280;9420;50.876;7.012;2023-05-22T08:36:49;100947.97;;;36.49;55.32
19553;BME280;9420;50.876;7.012;2023-05-22T08:39:17;100945.41;;;35.87;55.04
19553;BME280;9420;50.876;7.012;2023-05-22T08:41:44;100949.44;;;35.57;57.01
19553;BME280;9420;50.876;7.012;2023-05-22T08:44:12;100950.50;;;35.56;56.28
19553;BME280;9420;50.876;7.012;2023-05-22T08:46:39;100954.53;;;35.05;57.18
19553;BME280;9420;50.876;7.012;2023-05-22T08:49:09;100941.91;;;36.80;54.95
19553;BME280;9420;50.876;7.012;2023-05-22T08:51:39;100961.31;;;36.59;54.95
19553;BME280;9420;50.876;7.012;2023-05-22T08:54:08;100960.53;;;35.77;55.95
19553;BME280;9420;50.876;7.012;2023-05-22T08:56:36;100952.44;;;36.57;55.19
19553;BME280;9420;50.876;7.012;2023-05-22T08:59:06;100943.19;;;37.17;54.28
19553;BME280;9420;50.876;7.012;2023-05-22T09:01:34;100940.84;;;38.17;51.09
19553;BME280;9420;50.876;7.012;2023-05-22T09:04:02;100945.72;;;37.25;52.81
19553;BME280;9420;50.876;7.012;2023-05-22T09:06:29;100951.09;;;36.40;53.80
19553;BME280;9420;50.876;7.012;2023-05-22T09:08:56;100952.16;;;38.40;52.01
19553;BME280;9420;50.876;7.012;2023-05-22T09:11:25;100951.38;;;38.96;50.81
19553;BME280;9420;50.876;7.012;2023-05-22T09:13:52;100957.31;;;36.81;54.56
19553;BME280;9420;50.876;7.012;2023-05-22T09:16:19;100960.31;;;38.15;52.43
19553;BME280;9420;50.876;7.012;2023-05-22T09:18:46;100962.63;;;39.43;49.39
19553;BME280;9420;50.876;7.012;2023-05-22T09:21:13;100958.19;;;38.24;51.12
19553;BME280;9420;50.876;7.012;2023-05-22T09:23:40;100953.31;;;38.57;51.23
19553;BME280;9420;50.876;7.012;2023-05-22T09:26:08;100956.47;;;38.67;50.36
19553;BME280;9420;50.876;7.012;2023-05-22T09:28:37;100958.59;;;38.21;50.93
19553;BME280;9420;50.876;7.012;2023-05-22T09:31:04;100954.75;;;37.71;52.41
19553;BME280;9420;50.876;7.012;2023-05-22T09:33:31;100955.66;;;36.20;53.35
19553;BME280;9420;50.876;7.012;2023-05-22T09:35:58;100956.72;;;37.18;53.27
19553;BME280;9420;50.876;7.012;2023-05-22T09:38:28;100958.13;;;37.73;51.15
19553;BME280;9420;50.876;7.012;2023-05-22T09:40:56;100973.78;;;34.55;58.07
19553;BME280;9420;50.876;7.012;2023-05-22T09:43:23;100977.84;;;33.50;58.95
19553;BME280;9420;50.876;7.012;2023-05-22T09:46:00;100978.81;;;33.72;59.08
19553;BME280;9420;50.876;7.012;2023-05-22T09:48:32;100963.69;;;36.15;55.28
19553;BME280;9420;50.876;7.012;2023-05-22T09:51:00;100968.06;;;36.56;53.78
19553;BME280;9420;50.876;7.012;2023-05-22T09:53:32;100964.03;;;36.46;54.61
19553;BME280;9420;50.876;7.012;2023-05-22T09:56:00;100971.63;;;35.62;55.45
19553;BME280;9420;50.876;7.012;2023-05-22T09:58:34;100984.44;;;34.64;57.43
19553;BME280;9420;50.876;7.012;2023-05-22T10:01:04;100973.06;;;36.40;54.89
19553;BME280;9420;50.876;7.012;2023-05-22T10:03:36;100984.88;;;34.68;56.17
19553;BME280;9420;50.876;7.012;2023-05-22T10:06:05;100980.47;;;34.67;57.70
19553;BME280;9420;50.876;7.012;2023-05-22T10:08:42;100984.13;;;36.73;53.28
19553;BME280;9420;50.876;7.012;2023-05-22T10:11:10;100989.06;;;35.06;56.24
19553;BME280;9420;50.876;7.012;2023-05-22T10:13:40;100992.97;;;34.76;57.49
19553;BME280;9420;50.876;7.012;2023-05-22T10:16:11;100981.13;;;37.98;52.34
19553;BME280;9420;50.876;7.012;2023-05-22T10:18:40;100980.19;;;37.01;53.36
19553;BME280;9420;50.876;7.012;2023-05-22T10:21:09;100986.06;;;35.01;54.70
19553;BME280;9420;50.876;7.012;2023-05-22T10:23:36;100977.78;;;36.59;52.99
19553;BME280;9420;50.876;7.012;2023-05-22T10:26:04;100976.50;;;36.68;53.85
19553;BME280;9420;50.876;7.012;2023-05-22T10:28:39;100971.50;;;36.98;51.81
19553;BME280;9420;50.876;7.012;2023-05-22T10:31:22;100969.56;;;36.85;52.99
19553;BME280;9420;50.876;7.012;2023-05-22T10:33:55;100985.41;;;35.75;54.62
19553;BME280;9420;50.876;7.012;2023-05-22T10:36:38;100985.69;;;35.59;56.44
19553;BME280;9420;50.876;7.012;2023-05-22T10:39:26;100983.25;;;35.43;55.65
19553;BME280;9420;50.876;7.012;2023-05-22T10:41:57;100983.31;;;34.80;54.86
19553;BME280;9420;50.876;7.012;2023-05-22T10:44:24;100982.88;;;34.40;56.49
19553;BME280;9420;50.876;7.012;2023-05-22T10:46:52;100966.25;;;36.23;53.22
19553;BME280;9420;50.876;7.012;2023-05-22T10:49:20;100972.56;;;36.23;53.73
19553;BME280;9420;50.876;7.012;2023-05-22T10:51:48;100964.63;;;37.98;52.19
19553;BME280;9420;50.876;7.012;2023-05-22T10:54:15;100965.00;;;36.32;52.77
19553;BME280;9420;50.876;7.012;2023-05-22T10:56:42;100971.03;;;38.74;50.91
19553;BME280;9420;50.876;7.012;2023-05-22T10:59:11;100958.94;;;38.75;48.82
19553;BME280;9420;50.876;7.012;2023-05-22T11:01:38;100960.47;;;37.70;50.28
19553;BME280;9420;50.876;7.012;2023-05-22T11:04:12;100962.22;;;37.12;52.38
19553;BME280;9420;50.876;7.012;2023-05-22T11:06:44;100975.91;;;36.12;54.27
19553;BME280;9420;50.876;7.012;2023-05-22T11:09:28;100968.72;;;34.52;56.09
19553;BME280;9420;50.876;7.012;2023-05-22T11:12:16;100964.56;;;35.26;56.45
19553;BME280;9420;50.876;7.012;2023-05-22T11:14:52;100961.59;;;35.82;54.63
19553;BME280;9420;50.876;7.012;2023-05-22T11:17:22;100960.78;;;34.57;56.93
19553;BME280;9420;50.876;7.012;2023-05-22T11:20:03;100957.00;;;36.37;54.22
19553;BME280;9420;50.876;7.012;2023-05-22T11:22:35;100962.06;;;35.24;55.35
19553;BME280;9420;50.876;7.012;2023-05-22T11:25:07;100959.81;;;35.62;54.48
19553;BME280;9420;50.876;7.012;2023-05-22T11:27:36;100954.13;;;35.63;54.22
19553;BME280;9420;50.876;7.012;2023-05-22T11:30:05;100955.47;;;37.01;51.86
19553;BME280;9420;50.876;7.012;2023-05-22T11:32:35;100958.41;;;37.26;51.97
19553;BME280;9420;50.876;7.012;2023-05-22T11:35:04;100957.56;;;37.25;50.96
19553;BME280;9420;50.876;7.012;2023-05-22T11:37:37;100970.31;;;35.31;54.72
19553;BME280;9420;50.876;7.012;2023-05-22T11:40:06;100950.94;;;38.23;51.12
19553;BME280;9420;50.876;7.012;2023-05-22T11:42:35;100946.94;;;38.32;50.66
19553;BME280;9420;50.876;7.012;2023-05-22T11:45:03;100950.75;;;38.62;49.09
19553;BME280;9420;50.876;7.012;2023-05-22T11:47:31;100948.69;;;36.84;52.22
19553;BME280;9420;50.876;7.012;2023-05-22T11:49:59;100956.16;;;35.48;53.39
19553;BME280;9420;50.876;7.012;2023-05-22T11:52:31;100940.72;;;38.43;50.19
19553;BME280;9420;50.876;7.012;2023-05-22T11:54:59;100948.13;;;35.19;54.55
19553;BME280;9420;50.876;7.012;2023-05-22T11:57:26;100935.78;;;35.98;53.24
19553;BME280;9420;50.876;7.012;2023-05-22T11:59:53;100938.00;;;36.29;53.60
19553;BME280;9420;50.876;7.012;2023-05-22T12:02:20;100946.03;;;35.49;53.43
19553;BME280;9420;50.876;7.012;2023-05-22T12:04:52;100938.78;;;36.16;53.64
19553;BME280;9420;50.876;7.012;2023-05-22T12:07:20;100933.06;;;37.04;52.67
19553;BME280;9420;50.876;7.012;2023-05-22T12:09:49;100936.00;;;36.77;51.46
19553;BME280;9420;50.876;7.012;2023-05-22T12:12:16;100939.81;;;36.95;51.77
19553;BME280;9420;50.876;7.012;2023-05-22T12:14:44;100934.34;;;38.49;49.79
19553;BME280;9420;50.876;7.012;2023-05-22T12:17:12;100932.00;;;37.25;52.02
19553;BME280;9420;50.876;7.012;2023-05-22T12:19:40;100933.84;;;37.70;51.09
19553;BME280;9420;50.876;7.012;2023-05-22T12:22:08;100929.41;;;38.20;51.07
19553;BME280;9420;50.876;7.012;2023-05-22T12:24:39;100907.75;;;42.96;43.74
19553;BME280;9420;50.876;7.012;2023-05-22T12:27:09;100915.25;;;40.07;46.49
19553;BME280;9420;50.876;7.012;2023-05-22T12:29:37;100912.59;;;38.72;48.55
19553;BME280;9420;50.876;7.012;2023-05-22T12:32:07;100910.84;;;40.48;46.10
19553;BME280;9420;50.876;7.012;2023-05-22T12:34:42;100913.03;;;41.10;44.33
19553;BME280;9420;50.876;7.012;2023-05-22T12:37:18;100908.09;;;40.48;44.46
19553;BME280;9420;50.876;7.012;2023-05-22T12:39:55;100901.63;;;43.27;41.67
19553;BME280;9420;50.876;7.012;2023-05-22T12:42:24;100900.59;;;41.82;41.69
19553;BME280;9420;50.876;7.012;2023-05-22T12:44:53;100898.25;;;42.30;41.01
19553;BME280;9420;50.876;7.012;2023-05-22T12:47:22;100891.19;;;43.17;41.01
19553;BME280;9420;50.876;7.012;2023-05-22T12:49:50;100892.69;;;42.14;41.97
19553;BME280;9420;50.876;7.012;2023-05-22T12:52:17;100885.84;;;43.27;40.04
19553;BME280;9420;50.876;7.012;2023-05-22T12:54:45;100894.53;;;40.99;42.67
19553;BME280;9420;50.876;7.012;2023-05-22T12:57:12;100891.97;;;41.67;41.72
19553;BME280;9420;50.876;7.012;2023-05-22T12:59:40;100888.72;;;40.36;43.33
19553;BME280;9420;50.876;7.012;2023-05-22T13:02:08;100878.28;;;45.98;38.60
19553;BME280;9420;50.876;7.012;2023-05-22T13:04:36;100890.13;;;42.68;39.88
19553;BME280;9420;50.876;7.012;2023-05-22T13:07:04;100882.94;;;40.79;42.04
19553;BME280;9420;50.876;7.012;2023-05-22T13:09:31;100889.28;;;40.26;45.15
19553;BME280;9420;50.876;7.012;2023-05-22T13:12:01;100887.72;;;41.87;43.72